sensor_id;sensor_type;location;lat;lon;timestamp;P1;durP1;ratioP1;P2;durP2;ratioP2
5175;SDS011;2607;50.934;6.934;2023-05-10T00:01:21;0.50;;;0.50;;
5175;SDS011;2607;50.934;6.934;2023-05-10T00:03:46;0.50;;;0.50;;
5175;SDS011;2607;50.934;6.934;2023-05-10T00:06:12;0.50;;;0.50;;
5175;SDS011;2607;50.934;6.934;2023-05-10T00:08:38;0.50;;;0.50;;
5175;SDS011;2607;50.934;6.934;2023-05-10T00:11:03;0.50;;;0.50;;
5175;SDS011;2607;50.934;6.934;2023-05-10T00:13:29;0.50;;;0.50;;
5175;SDS011;2607;50.934;6.934;2023-05-10T00:15:54;0.50;;;0.50;;
5175;SDS011;2607;50.934;6.934;2023-05-10T00:18:20;0.50;;;0.50;;
5175;SDS011;2607;50.934;6.934;2023-05-10T00:20:45;0.50;;;0.50;;
5175;SDS011;2607;50.934;6.934;2023-05-10T00:23:11;0.47;;;0.47;;
5175;SDS011;2607;50.934;6.934;2023-05-10T00:25:37;0.50;;;0.50;;
5175;SDS011;2607;50.934;6.934;2023-05-10T00:28:02;0.50;;;0.50;;
5175;SDS011;2607;50.934;6.934;2023-05-10T00:30:28;0.50;;;0.50;;
5175;SDS011;2607;50.934;6.934;2023-05-10T00:32:54;0.50;;;0.50;;
5175;SDS011;2607;50.934;6.934;2023-05-10T00:35:19;1.80;;;1.33;;
5175;SDS011;2607;50.934;6.934;2023-05-10T00:37:46;0.60;;;0.60;;
5175;SDS011;2607;50.934;6.934;2023-05-10T00:40:12;0.50;;;0.50;;
5175;SDS011;2607;50.934;6.934;2023-05-10T00:42:38;0.50;;;0.50;;
5175;SDS011;2607;50.934;6.934;2023-05-10T00:45:03;0.50;;;0.50;;
5175;SDS011;2607;50.934;6.934;2023-05-10T00:47:29;0.97;;;0.97;;
5175;SDS011;2607;50.934;6.934;2023-05-10T00:49:56;0.50;;;0.50;;
5175;SDS011;2607;50.934;6.934;2023-05-10T00:52:21;0.50;;;0.50;;
5175;SDS011;2607;50.934;6.934;2023-05-10T00:54:49;0.67;;;0.67;;
5175;SDS011;2607;50.934;6.934;2023-05-10T00:57:16;2.03;;;1.93;;
5175;SDS011;2607;50.934;6.934;2023-05-10T00:59:42;0.50;;;0.50;;
5175;SDS011;2607;50.934;6.934;2023-05-10T01:02:07;0.93;;;0.93;;
5175;SDS011;2607;50.934;6.934;2023-05-10T01:04:33;0.90;;;0.90;;
5175;SDS011;2607;50.934;6.934;2023-05-10T01:07:00;1.07;;;0.97;;
5175;SDS011;2607;50.934;6.934;2023-05-10T01:09:26;0.50;;;0.50;;
5175;SDS011;2607;50.934;6.934;2023-05-10T01:11:52;1.53;;;1.43;;
5175;SDS011;2607;50.934;6.934;2023-05-10T01:14:19;0.50;;;0.50;;
5175;SDS011;2607;50.934;6.934;2023-05-10T01:16:46;0.50;;;0.50;;
5175;SDS011;2607;50.934;6.934;2023-05-10T01:19:22;0.50;;;0.50;;
5175;SDS011;2607;50.934;6.934;2023-05-10T01:24:31;0.70;;;0.70;;
5175;SDS011;2607;50.934;6.934;2023-05-10T01:29:47;0.50;;;0.50;;
5175;SDS011;2607;50.934;6.934;2023-05-10T01:32:55;0.50;;;0.50;;
5175;SDS011;2607;50.934;6.934;2023-05-10T01:35:41;0.60;;;0.60;;
5175;SDS011;2607;50.934;6.934;2023-05-10T01:38:20;0.70;;;0.70;;
5175;SDS011;2607;50.934;6.934;2023-05-10T01:43:22;0.50;;;0.50;;
5175;SDS011;2607;50.934;6.934;2023-05-10T01:46:00;0.50;;;0.50;;
5175;SDS011;2607;50.934;6.934;2023-05-10T01:48:35;0.50;;;0.50;;
5175;SDS011;2607;50.934;6.934;2023-05-10T01:51:25;0.50;;;0.50;;
5175;SDS011;2607;50.934;6.934;2023-05-10T01:53:59;1.90;;;1.80;;
5175;SDS011;2607;50.934;6.934;2023-05-10T01:56:27;0.50;;;0.50;;
5175;SDS011;2607;50.934;6.934;2023-05-10T01:58:55;0.50;;;0.50;;
5175;SDS011;2607;50.934;6.934;2023-05-10T02:01:22;0.50;;;0.50;;
5175;SDS011;2607;50.934;6.934;2023-05-10T02:03:49;0.80;;;0.80;;
5175;SDS011;2607;50.934;6.934;2023-05-10T02:06:16;0.50;;;0.50;;
5175;SDS011;2607;50.934;6.934;2023-05-10T02:08:45;0.50;;;0.50;;
5175;SDS011;2607;50.934;6.934;2023-05-10T02:11:12;0.50;;;0.50;;
5175;SDS011;2607;50.934;6.934;2023-05-10T02:13:38;0.47;;;0.47;;
5175;SDS011;2607;50.934;6.934;2023-05-10T02:16:05;0.80;;;0.80;;
5175;SDS011;2607;50.934;6.934;2023-05-10T02:18:31;0.50;;;0.50;;
5175;SDS011;2607;50.934;6.934;2023-05-10T02:20:58;0.50;;;0.50;;
5175;SDS011;2607;50.934;6.934;2023-05-10T02:23:25;0.50;;;0.50;;
5175;SDS011;2607;50.934;6.934;2023-05-10T02:25:51;0.60;;;0.60;;
5175;SDS011;2607;50.934;6.934;2023-05-10T02:28:18;0.50;;;0.50;;
5175;SDS011;2607;50.934;6.934;2023-05-10T02:30:45;0.50;;;0.50;;
5175;SDS011;2607;50.934;6.934;2023-05-10T02:33:12;1.30;;;1.20;;
5175;SDS011;2607;50.934;6.934;2023-05-10T02:35:39;0.50;;;0.50;;
5175;SDS011;2607;50.934;6.934;2023-05-10T02:38:05;2.30;;;2.20;;
5175;SDS011;2607;50.934;6.934;2023-05-10T02:40:32;0.50;;;0.50;;
5175;SDS011;2607;50.934;6.934;2023-05-10T02:42:59;0.50;;;0.50;;
5175;SDS011;2607;50.934;6.934;2023-05-10T02:45:27;0.40;;;0.40;;
5175;SDS011;2607;50.934;6.934;2023-05-10T02:47:56;0.50;;;0.50;;
5175;SDS011;2607;50.934;6.934;2023-05-10T02:50:22;0.50;;;0.50;;
5175;SDS011;2607;50.934;6.934;2023-05-10T02:52:52;0.50;;;0.50;;
5175;SDS011;2607;50.934;6.934;2023-05-10T02:55:22;0.50;;;0.50;;
5175;SDS011;2607;50.934;6.934;2023-05-10T02:57:52;0.40;;;0.40;;
5175;SDS011;2607;50.934;6.934;2023-05-10T03:00:24;0.50;;;0.50;;
5175;SDS011;2607;50.934;6.934;2023-05-10T03:02:50;0.50;;;0.50;;
5175;SDS011;2607;50.934;6.934;2023-05-10T03:05:15;0.80;;;0.80;;
5175;SDS011;2607;50.934;6.934;2023-05-10T03:07:41;0.50;;;0.50;;
5175;SDS011;2607;50.934;6.934;2023-05-10T03:10:07;0.60;;;0.60;;
5175;SDS011;2607;50.934;6.934;2023-05-10T03:12:57;0.50;;;0.50;;
5175;SDS011;2607;50.934;6.934;2023-05-10T03:15:34;0.47;;;0.47;;
5175;SDS011;2607;50.934;6.934;2023-05-10T03:18:20;0.50;;;0.50;;
5175;SDS011;2607;50.934;6.934;2023-05-10T03:20:48;0.50;;;0.50;;
5175;SDS011;2607;50.934;6.934;2023-05-10T03:23:23;0.50;;;0.50;;
5175;SDS011;2607;50.934;6.934;2023-05-10T03:25:54;0.50;;;0.50;;
5175;SDS011;2607;50.934;6.934;2023-05-10T03:28:20;0.50;;;0.50;;
5175;SDS011;2607;50.934;6.934;2023-05-10T03:30:46;0.50;;;0.50;;
5175;SDS011;2607;50.934;6.934;2023-05-10T03:33:12;0.40;;;0.40;;
5175;SDS011;2607;50.934;6.934;2023-05-10T03:35:39;0.50;;;0.50;;
5175;SDS011;2607;50.934;6.934;2023-05-10T03:38:04;0.50;;;0.50;;
5175;SDS011;2607;50.934;6.934;2023-05-10T03:40:30;0.40;;;0.40;;
5175;SDS011;2607;50.934;6.934;2023-05-10T03:42:57;0.50;;;0.50;;
5175;SDS011;2607;50.934;6.934;2023-05-10T03:45:23;0.50;;;0.50;;
5175;SDS011;2607;50.934;6.934;2023-05-10T03:47:49;0.50;;;0.50;;
5175;SDS011;2607;50.934;6.934;2023-05-10T03:50:14;0.50;;;0.50;;
5175;SDS011;2607;50.934;6.934;2023-05-10T03:52:40;0.50;;;0.50;;
5175;SDS011;2607;50.934;6.934;2023-05-10T03:55:06;0.50;;;0.50;;
5175;SDS011;2607;50.934;6.934;2023-05-10T03:57:31;1.53;;;1.43;;
5175;SDS011;2607;50.934;6.934;2023-05-10T03:59:57;0.93;;;0.90;;
5175;SDS011;2607;50.934;6.934;2023-05-10T04:02:23;0.50;;;0.50;;
5175;SDS011;2607;50.934;6.934;2023-05-10T04:04:48;0.50;;;0.50;;
5175;SDS011;2607;50.934;6.934;2023-05-10T04:07:14;0.50;;;0.50;;
5175;SDS011;2607;50.934;6.934;2023-05-10T04:09:40;0.50;;;0.50;;
5175;SDS011;2607;50.934;6.934;2023-05-10T04:12:05;0.50;;;0.50;;
5175;SDS011;2607;50.934;6.934;2023-05-10T04:14:31;1.27;;;1.27;;
5175;SDS011;2607;50.934;6.934;2023-05-10T04:16:57;0.50;;;0.50;;
5175;SDS011;2607;50.934;6.934;2023-05-10T04:19:22;0.50;;;0.50;;
5175;SDS011;2607;50.934;6.934;2023-05-10T04:21:48;0.50;;;0.50;;
5175;SDS011;2607;50.934;6.934;2023-05-10T04:24:14;0.47;;;0.47;;
5175;SDS011;2607;50.934;6.934;2023-05-10T04:26:39;0.50;;;0.50;;
5175;SDS011;2607;50.934;6.934;2023-05-10T04:29:05;0.50;;;0.50;;
5175;SDS011;2607;50.934;6.934;2023-05-10T04:31:31;0.50;;;0.50;;
5175;SDS011;2607;50.934;6.934;2023-05-10T04:33:56;0.70;;;0.70;;
5175;SDS011;2607;50.934;6.934;2023-05-10T04:36:22;0.50;;;0.50;;
5175;SDS011;2607;50.934;6.934;2023-05-10T04:38:47;0.50;;;0.50;;
5175;SDS011;2607;50.934;6.934;2023-05-10T04:41:13;0.50;;;0.50;;
5175;SDS011;2607;50.934;6.934;2023-05-10T04:43:38;0.50;;;0.50;;
5175;SDS011;2607;50.934;6.934;2023-05-10T04:46:04;0.60;;;0.60;;
5175;SDS011;2607;50.934;6.934;2023-05-10T04:48:30;0.50;;;0.50;;
5175;SDS011;2607;50.934;6.934;2023-05-10T04:50:56;0.50;;;0.50;;
5175;SDS011;2607;50.934;6.934;2023-05-10T04:53:22;0.50;;;0.50;;
5175;SDS011;2607;50.934;6.934;2023-05-10T04:55:47;0.50;;;0.50;;
5175;SDS011;2607;50.934;6.934;2023-05-10T04:58:13;0.50;;;0.50;;
5175;SDS011;2607;50.934;6.934;2023-05-10T05:00:39;0.50;;;0.50;;
5175;SDS011;2607;50.934;6.934;2023-05-10T05:03:05;0.50;;;0.50;;
5175;SDS011;2607;50.934;6.934;2023-05-10T05:05:31;0.50;;;0.50;;
5175;SDS011;2607;50.934;6.934;2023-05-10T05:07:56;0.50;;;0.50;;
5175;SDS011;2607;50.934;6.934;2023-05-10T05:10:22;0.50;;;0.50;;
5175;SDS011;2607;50.934;6.934;2023-05-10T05:12:47;0.50;;;0.50;;
5175;SDS011;2607;50.934;6.934;2023-05-10T05:15:13;0.50;;;0.50;;
5175;SDS011;2607;50.934;6.934;2023-05-10T05:17:40;0.50;;;0.50;;
5175;SDS011;2607;50.934;6.934;2023-05-10T05:20:05;0.50;;;0.50;;
5175;SDS011;2607;50.934;6.934;2023-05-10T05:22:32;0.50;;;0.50;;
5175;SDS011;2607;50.934;6.934;2023-05-10T05:24:57;0.50;;;0.50;;
5175;SDS011;2607;50.934;6.934;2023-05-10T05:27:23;0.50;;;0.50;;
5175;SDS011;2607;50.934;6.934;2023-05-10T05:29:53;0.93;;;0.90;;
5175;SDS011;2607;50.934;6.934;2023-05-10T05:32:20;0.67;;;0.67;;
5175;SDS011;2607;50.934;6.934;2023-05-10T05:34:45;0.60;;;0.60;;
5175;SDS011;2607;50.934;6.934;2023-05-10T05:37:14;1.00;;;1.00;;
5175;SDS011;2607;50.934;6.934;2023-05-10T05:39:41;0.60;;;0.60;;
5175;SDS011;2607;50.934;6.934;2023-05-10T05:42:07;0.50;;;0.50;;
5175;SDS011;2607;50.934;6.934;2023-05-10T05:44:33;0.93;;;0.93;;
5175;SDS011;2607;50.934;6.934;2023-05-10T05:46:59;0.50;;;0.50;;
5175;SDS011;2607;50.934;6.934;2023-05-10T05:49:24;0.50;;;0.50;;
5175;SDS011;2607;50.934;6.934;2023-05-10T05:51:50;0.50;;;0.50;;
5175;SDS011;2607;50.934;6.934;2023-05-10T05:54:15;0.60;;;0.60;;
5175;SDS011;2607;50.934;6.934;2023-05-10T05:56:41;0.50;;;0.50;;
5175;SDS011;2607;50.934;6.934;2023-05-10T05:59:07;0.50;;;0.50;;
5175;SDS011;2607;50.934;6.934;2023-05-10T06:01:32;0.50;;;0.50;;
5175;SDS011;2607;50.934;6.934;2023-05-10T06:03:58;0.50;;;0.50;;
5175;SDS011;2607;50.934;6.934;2023-05-10T06:06:24;0.50;;;0.50;;
5175;SDS011;2607;50.934;6.934;2023-05-10T06:08:49;0.50;;;0.50;;
5175;SDS011;2607;50.934;6.934;2023-05-10T06:11:15;0.50;;;0.50;;
5175;SDS011;2607;50.934;6.934;2023-05-10T06:13:40;0.50;;;0.50;;
5175;SDS011;2607;50.934;6.934;2023-05-10T06:16:07;0.50;;;0.50;;
5175;SDS011;2607;50.934;6.934;2023-05-10T06:18:32;0.50;;;0.50;;
5175;SDS011;2607;50.934;6.934;2023-05-10T06:20:58;0.50;;;0.50;;
5175;SDS011;2607;50.934;6.934;2023-05-10T06:23:24;0.50;;;0.50;;
5175;SDS011;2607;50.934;6.934;2023-05-10T06:25:50;0.50;;;0.50;;
5175;SDS011;2607;50.934;6.934;2023-05-10T06:28:16;0.50;;;0.50;;
5175;SDS011;2607;50.934;6.934;2023-05-10T06:30:41;0.50;;;0.50;;
5175;SDS011;2607;50.934;6.934;2023-05-10T06:33:07;0.60;;;0.60;;
5175;SDS011;2607;50.934;6.934;2023-05-10T06:35:33;0.50;;;0.50;;
5175;SDS011;2607;50.934;6.934;2023-05-10T06:37:59;0.50;;;0.50;;
5175;SDS011;2607;50.934;6.934;2023-05-10T06:40:24;0.70;;;0.70;;
5175;SDS011;2607;50.934;6.934;2023-05-10T06:42:50;0.50;;;0.50;;
5175;SDS011;2607;50.934;6.934;2023-05-10T06:45:16;0.50;;;0.50;;
5175;SDS011;2607;50.934;6.934;2023-05-10T06:47:42;0.50;;;0.50;;
5175;SDS011;2607;50.934;6.934;2023-05-10T06:50:08;0.50;;;0.50;;
5175;SDS011;2607;50.934;6.934;2023-05-10T06:52:34;0.50;;;0.50;;
5175;SDS011;2607;50.934;6.934;2023-05-10T06:55:00;0.50;;;0.50;;
5175;SDS011;2607;50.934;6.934;2023-05-10T06:57:26;0.50;;;0.50;;
5175;SDS011;2607;50.934;6.934;2023-05-10T06:59:51;0.40;;;0.40;;
5175;SDS011;2607;50.934;6.934;2023-05-10T07:02:17;0.50;;;0.50;;
5175;SDS011;2607;50.934;6.934;2023-05-10T07:04:42;0.50;;;0.50;;
5175;SDS011;2607;50.934;6.934;2023-05-10T07:07:08;0.60;;;0.60;;
5175;SDS011;2607;50.934;6.934;2023-05-10T07:09:34;0.50;;;0.50;;
5175;SDS011;2607;50.934;6.934;2023-05-10T07:11:59;0.50;;;0.50;;
5175;SDS011;2607;50.934;6.934;2023-05-10T07:14:26;0.50;;;0.50;;
5175;SDS011;2607;50.934;6.934;2023-05-10T07:16:52;0.50;;;0.50;;
5175;SDS011;2607;50.934;6.934;2023-05-10T07:19:18;0.50;;;0.50;;
5175;SDS011;2607;50.934;6.934;2023-05-10T07:21:44;0.90;;;0.90;;
5175;SDS011;2607;50.934;6.934;2023-05-10T07:24:10;0.50;;;0.50;;
5175;SDS011;2607;50.934;6.934;2023-05-10T07:26:35;0.50;;;0.50;;
5175;SDS011;2607;50.934;6.934;2023-05-10T07:29:01;0.73;;;0.73;;
5175;SDS011;2607;50.934;6.934;2023-05-10T07:31:27;0.77;;;0.77;;
5175;SDS011;2607;50.934;6.934;2023-05-10T07:33:52;0.50;;;0.50;;
5175;SDS011;2607;50.934;6.934;2023-05-10T07:36:18;0.50;;;0.50;;
5175;SDS011;2607;50.934;6.934;2023-05-10T07:38:44;0.50;;;0.50;;
5175;SDS011;2607;50.934;6.934;2023-05-10T07:41:10;0.57;;;0.57;;
5175;SDS011;2607;50.934;6.934;2023-05-10T07:43:36;0.40;;;0.40;;
5175;SDS011;2607;50.934;6.934;2023-05-10T07:46:02;0.50;;;0.50;;
5175;SDS011;2607;50.934;6.934;2023-05-10T07:48:27;0.60;;;0.60;;
5175;SDS011;2607;50.934;6.934;2023-05-10T07:50:53;0.67;;;0.67;;
5175;SDS011;2607;50.934;6.934;2023-05-10T07:53:18;0.50;;;0.50;;
5175;SDS011;2607;50.934;6.934;2023-05-10T07:55:44;0.50;;;0.50;;
5175;SDS011;2607;50.934;6.934;2023-05-10T07:58:15;0.50;;;0.50;;
5175;SDS011;2607;50.934;6.934;2023-05-10T08:00:40;0.50;;;0.50;;
5175;SDS011;2607;50.934;6.934;2023-05-10T08:03:06;0.50;;;0.50;;
5175;SDS011;2607;50.934;6.934;2023-05-10T08:05:31;0.50;;;0.50;;
5175;SDS011;2607;50.934;6.934;2023-05-10T08:07:57;0.40;;;0.40;;
5175;SDS011;2607;50.934;6.934;2023-05-10T08:10:24;0.50;;;0.50;;
5175;SDS011;2607;50.934;6.934;2023-05-10T08:12:50;0.50;;;0.50;;
5175;SDS011;2607;50.934;6.934;2023-05-10T08:15:15;0.50;;;0.50;;
5175;SDS011;2607;50.934;6.934;2023-05-10T08:17:41;0.50;;;0.50;;
5175;SDS011;2607;50.934;6.934;2023-05-10T08:20:08;0.50;;;0.50;;
5175;SDS011;2607;50.934;6.934;2023-05-10T08:22:33;0.53;;;0.53;;
5175;SDS011;2607;50.934;6.934;2023-05-10T08:24:59;0.50;;;0.50;;
5175;SDS011;2607;50.934;6.934;2023-05-10T08:27:25;0.50;;;0.50;;
5175;SDS011;2607;50.934;6.934;2023-05-10T08:29:50;0.50;;;0.50;;
5175;SDS011;2607;50.934;6.934;2023-05-10T08:32:16;0.50;;;0.50;;
5175;SDS011;2607;50.934;6.934;2023-05-10T08:34:42;0.50;;;0.50;;
5175;SDS011;2607;50.934;6.934;2023-05-10T08:37:07;0.50;;;0.50;;
5175;SDS011;2607;50.934;6.934;2023-05-10T08:39:34;0.50;;;0.50;;
5175;SDS011;2607;50.934;6.934;2023-05-10T08:42:01;0.50;;;0.50;;
5175;SDS011;2607;50.934;6.934;2023-05-10T08:44:29;0.50;;;0.50;;
5175;SDS011;2607;50.934;6.934;2023-05-10T08:46:58;0.50;;;0.50;;
5175;SDS011;2607;50.934;6.934;2023-05-10T08:49:27;0.50;;;0.50;;
5175;SDS011;2607;50.934;6.934;2023-05-10T08:51:55;0.50;;;0.50;;
5175;SDS011;2607;50.934;6.934;2023-05-10T08:54:24;0.50;;;0.50;;
5175;SDS011;2607;50.934;6.934;2023-05-10T08:56:50;0.50;;;0.50;;
5175;SDS011;2607;50.934;6.934;2023-05-10T08:59:16;0.50;;;0.50;;
5175;SDS011;2607;50.934;6.934;2023-05-10T09:01:42;0.50;;;0.50;;
5175;SDS011;2607;50.934;6.934;2023-05-10T09:04:09;0.40;;;0.40;;
5175;SDS011;2607;50.934;6.934;2023-05-10T09:06:35;0.50;;;0.50;;
5175;SDS011;2607;50.934;6.934;2023-05-10T09:09:01;0.50;;;0.50;;
5175;SDS011;2607;50.934;6.934;2023-05-10T09:11:28;0.50;;;0.50;;
5175;SDS011;2607;50.934;6.934;2023-05-10T09:13:54;0.73;;;0.73;;
5175;SDS011;2607;50.934;6.934;2023-05-10T09:16:21;0.50;;;0.50;;
5175;SDS011;2607;50.934;6.934;2023-05-10T09:18:47;1.37;;;1.27;;
5175;SDS011;2607;50.934;6.934;2023-05-10T09:21:14;0.47;;;0.47;;
5175;SDS011;2607;50.934;6.934;2023-05-10T09:23:42;0.50;;;0.50;;
5175;SDS011;2607;50.934;6.934;2023-05-10T09:26:11;0.50;;;0.50;;
5175;SDS011;2607;50.934;6.934;2023-05-10T09:28:56;0.50;;;0.50;;
5175;SDS011;2607;50.934;6.934;2023-05-10T09:31:24;0.50;;;0.50;;
5175;SDS011;2607;50.934;6.934;2023-05-10T09:33:53;0.50;;;0.50;;
5175;SDS011;2607;50.934;6.934;2023-05-10T09:36:18;0.80;;;0.80;;
5175;SDS011;2607;50.934;6.934;2023-05-10T09:38:51;0.50;;;0.50;;
5175;SDS011;2607;50.934;6.934;2023-05-10T09:41:18;1.17;;;1.17;;
5175;SDS011;2607;50.934;6.934;2023-05-10T09:43:47;0.50;;;0.50;;
5175;SDS011;2607;50.934;6.934;2023-05-10T09:46:13;0.50;;;0.50;;
5175;SDS011;2607;50.934;6.934;2023-05-10T09:48:41;0.50;;;0.50;;
5175;SDS011;2607;50.934;6.934;2023-05-10T09:51:08;0.50;;;0.50;;
5175;SDS011;2607;50.934;6.934;2023-05-10T09:53:34;0.50;;;0.50;;
5175;SDS011;2607;50.934;6.934;2023-05-10T09:56:00;0.50;;;0.50;;
5175;SDS011;2607;50.934;6.934;2023-05-10T09:58:25;0.80;;;0.80;;
5175;SDS011;2607;50.934;6.934;2023-05-10T10:00:51;0.50;;;0.50;;
5175;SDS011;2607;50.934;6.934;2023-05-10T10:03:19;0.50;;;0.50;;
5175;SDS011;2607;50.934;6.934;2023-05-10T10:05:46;0.50;;;0.50;;
5175;SDS011;2607;50.934;6.934;2023-05-10T10:08:13;0.50;;;0.50;;
5175;SDS011;2607;50.934;6.934;2023-05-10T10:10:40;0.50;;;0.50;;
5175;SDS011;2607;50.934;6.934;2023-05-10T10:13:06;0.50;;;0.50;;
5175;SDS011;2607;50.934;6.934;2023-05-10T10:15:33;0.60;;;0.60;;
5175;SDS011;2607;50.934;6.934;2023-05-10T10:17:59;0.50;;;0.50;;
5175;SDS011;2607;50.934;6.934;2023-05-10T10:20:25;0.50;;;0.50;;
5175;SDS011;2607;50.934;6.934;2023-05-10T10:22:52;0.50;;;0.50;;
5175;SDS011;2607;50.934;6.934;2023-05-10T10:25:19;0.50;;;0.50;;
5175;SDS011;2607;50.934;6.934;2023-05-10T10:35:49;0.50;;;0.50;;
5175;SDS011;2607;50.934;6.934;2023-05-10T10:38:17;0.50;;;0.50;;
5175;SDS011;2607;50.934;6.934;2023-05-10T10:40:42;0.80;;;0.80;;
5175;SDS011;2607;50.934;6.934;2023-05-10T10:43:21;0.50;;;0.50;;
5175;SDS011;2607;50.934;6.934;2023-05-10T10:48:36;0.50;;;0.50;;
5175;SDS011;2607;50.934;6.934;2023-05-10T10:51:02;0.50;;;0.50;;
5175;SDS011;2607;50.934;6.934;2023-05-10T10:53:27;0.50;;;0.50;;
5175;SDS011;2607;50.934;6.934;2023-05-10T10:58:39;1.00;;;1.00;;
5175;SDS011;2607;50.934;6.934;2023-05-10T11:01:16;0.40;;;0.40;;
5175;SDS011;2607;50.934;6.934;2023-05-10T11:06:30;0.63;;;0.63;;
5175;SDS011;2607;50.934;6.934;2023-05-10T11:08:57;0.93;;;0.80;;
5175;SDS011;2607;50.934;6.934;2023-05-10T11:11:23;0.50;;;0.50;;
5175;SDS011;2607;50.934;6.934;2023-05-10T11:13:49;0.50;;;0.50;;
5175;SDS011;2607;50.934;6.934;2023-05-10T11:16:19;1.07;;;1.07;;
5175;SDS011;2607;50.934;6.934;2023-05-10T11:21:19;1.23;;;1.13;;
5175;SDS011;2607;50.934;6.934;2023-05-10T11:23:54;4.47;;;2.90;;
5175;SDS011;2607;50.934;6.934;2023-05-10T11:26:22;3.90;;;2.67;;
5175;SDS011;2607;50.934;6.934;2023-05-10T11:28:50;4.00;;;3.40;;
5175;SDS011;2607;50.934;6.934;2023-05-10T11:31:20;3.80;;;2.83;;
5175;SDS011;2607;50.934;6.934;2023-05-10T11:33:47;3.47;;;2.50;;
5175;SDS011;2607;50.934;6.934;2023-05-10T11:36:16;5.03;;;3.73;;
5175;SDS011;2607;50.934;6.934;2023-05-10T11:38:43;3.10;;;2.87;;
5175;SDS011;2607;50.934;6.934;2023-05-10T11:41:09;5.30;;;3.53;;
5175;SDS011;2607;50.934;6.934;2023-05-10T11:43:36;3.80;;;3.43;;
5175;SDS011;2607;50.934;6.934;2023-05-10T11:46:04;3.40;;;3.10;;
5175;SDS011;2607;50.934;6.934;2023-05-10T11:48:30;2.93;;;2.73;;
5175;SDS011;2607;50.934;6.934;2023-05-10T11:50:56;3.20;;;2.90;;
5175;SDS011;2607;50.934;6.934;2023-05-10T11:53:22;2.90;;;2.70;;
5175;SDS011;2607;50.934;6.934;2023-05-10T11:55:50;2.93;;;2.80;;
5175;SDS011;2607;50.934;6.934;2023-05-10T11:58:17;13.50;;;3.57;;
5175;SDS011;2607;50.934;6.934;2023-05-10T12:00:43;3.27;;;3.07;;
5175;SDS011;2607;50.934;6.934;2023-05-10T12:03:10;7.20;;;4.10;;
5175;SDS011;2607;50.934;6.934;2023-05-10T12:05:36;3.40;;;3.10;;
5175;SDS011;2607;50.934;6.934;2023-05-10T12:08:12;3.60;;;3.30;;
5175;SDS011;2607;50.934;6.934;2023-05-10T12:10:41;6.13;;;4.03;;
5175;SDS011;2607;50.934;6.934;2023-05-10T12:13:13;3.87;;;3.57;;
5175;SDS011;2607;50.934;6.934;2023-05-10T12:15:39;3.13;;;2.93;;
5175;SDS011;2607;50.934;6.934;2023-05-10T12:18:05;3.40;;;3.10;;
5175;SDS011;2607;50.934;6.934;2023-05-10T12:20:35;3.90;;;3.60;;
5175;SDS011;2607;50.934;6.934;2023-05-10T12:23:01;3.20;;;3.00;;
5175;SDS011;2607;50.934;6.934;2023-05-10T12:25:31;3.20;;;3.00;;
5175;SDS011;2607;50.934;6.934;2023-05-10T12:27:59;3.40;;;3.10;;
5175;SDS011;2607;50.934;6.934;2023-05-10T12:30:28;3.00;;;2.90;;
5175;SDS011;2607;50.934;6.934;2023-05-10T12:33:08;4.13;;;3.83;;
5175;SDS011;2607;50.934;6.934;2023-05-10T12:40:57;3.60;;;3.30;;
5175;SDS011;2607;50.934;6.934;2023-05-10T12:43:24;3.70;;;3.50;;
5175;SDS011;2607;50.934;6.934;2023-05-10T12:45:50;2.90;;;2.70;;
5175;SDS011;2607;50.934;6.934;2023-05-10T12:48:15;2.80;;;2.70;;
5175;SDS011;2607;50.934;6.934;2023-05-10T12:50:41;3.10;;;3.00;;
5175;SDS011;2607;50.934;6.934;2023-05-10T12:53:07;3.67;;;3.47;;
5175;SDS011;2607;50.934;6.934;2023-05-10T12:55:32;3.30;;;3.10;;
5175;SDS011;2607;50.934;6.934;2023-05-10T12:57:58;3.63;;;3.37;;
5175;SDS011;2607;50.934;6.934;2023-05-10T13:00:23;5.20;;;2.80;;
5175;SDS011;2607;50.934;6.934;2023-05-10T13:02:49;2.93;;;2.73;;
5175;SDS011;2607;50.934;6.934;2023-05-10T13:05:14;3.00;;;2.90;;
5175;SDS011;2607;50.934;6.934;2023-05-10T13:07:40;3.50;;;3.30;;
5175;SDS011;2607;50.934;6.934;2023-05-10T13:10:06;2.67;;;2.57;;
5175;SDS011;2607;50.934;6.934;2023-05-10T13:12:32;2.37;;;2.27;;
5175;SDS011;2607;50.934;6.934;2023-05-10T13:14:57;2.67;;;2.50;;
5175;SDS011;2607;50.934;6.934;2023-05-10T13:17:25;2.87;;;2.67;;
5175;SDS011;2607;50.934;6.934;2023-05-10T13:19:50;2.80;;;2.70;;
5175;SDS011;2607;50.934;6.934;2023-05-10T13:22:16;3.10;;;2.90;;
5175;SDS011;2607;50.934;6.934;2023-05-10T13:24:42;5.53;;;2.77;;
5175;SDS011;2607;50.934;6.934;2023-05-10T13:27:08;3.50;;;3.20;;
5175;SDS011;2607;50.934;6.934;2023-05-10T13:29:33;2.97;;;2.87;;
5175;SDS011;2607;50.934;6.934;2023-05-10T13:31:59;2.57;;;2.47;;
5175;SDS011;2607;50.934;6.934;2023-05-10T13:34:25;2.70;;;2.60;;
5175;SDS011;2607;50.934;6.934;2023-05-10T13:36:50;1.97;;;1.97;;
5175;SDS011;2607;50.934;6.934;2023-05-10T13:39:16;2.50;;;2.00;;
5175;SDS011;2607;50.934;6.934;2023-05-10T13:41:41;2.40;;;2.40;;
5175;SDS011;2607;50.934;6.934;2023-05-10T13:44:07;2.40;;;2.30;;
5175;SDS011;2607;50.934;6.934;2023-05-10T13:46:32;3.10;;;2.90;;
5175;SDS011;2607;50.934;6.934;2023-05-10T13:48:58;2.17;;;2.17;;
5175;SDS011;2607;50.934;6.934;2023-05-10T13:51:23;2.10;;;2.00;;
5175;SDS011;2607;50.934;6.934;2023-05-10T13:53:49;2.73;;;2.53;;
5175;SDS011;2607;50.934;6.934;2023-05-10T13:56:15;4.50;;;2.27;;
5175;SDS011;2607;50.934;6.934;2023-05-10T13:58:40;1.70;;;1.70;;
5175;SDS011;2607;50.934;6.934;2023-05-10T14:01:06;2.37;;;2.20;;
5175;SDS011;2607;50.934;6.934;2023-05-10T14:03:32;1.33;;;1.33;;
5175;SDS011;2607;50.934;6.934;2023-05-10T14:05:58;2.80;;;1.63;;
5175;SDS011;2607;50.934;6.934;2023-05-10T14:08:23;1.97;;;1.97;;
5175;SDS011;2607;50.934;6.934;2023-05-10T14:10:49;1.70;;;1.60;;
5175;SDS011;2607;50.934;6.934;2023-05-10T14:13:15;2.07;;;1.97;;
5175;SDS011;2607;50.934;6.934;2023-05-10T14:15:41;1.90;;;1.80;;
5175;SDS011;2607;50.934;6.934;2023-05-10T14:18:06;1.60;;;1.50;;
5175;SDS011;2607;50.934;6.934;2023-05-10T14:20:32;1.97;;;1.87;;
5175;SDS011;2607;50.934;6.934;2023-05-10T14:22:58;2.57;;;2.37;;
5175;SDS011;2607;50.934;6.934;2023-05-10T14:25:25;1.60;;;1.60;;
5175;SDS011;2607;50.934;6.934;2023-05-10T14:27:50;8.43;;;3.00;;
5175;SDS011;2607;50.934;6.934;2023-05-10T14:30:19;3.90;;;2.80;;
5175;SDS011;2607;50.934;6.934;2023-05-10T14:32:44;1.63;;;1.63;;
5175;SDS011;2607;50.934;6.934;2023-05-10T14:35:10;1.90;;;1.80;;
5175;SDS011;2607;50.934;6.934;2023-05-10T14:37:36;2.87;;;2.77;;
5175;SDS011;2607;50.934;6.934;2023-05-10T14:40:02;2.50;;;2.00;;
5175;SDS011;2607;50.934;6.934;2023-05-10T14:42:29;1.80;;;1.70;;
5175;SDS011;2607;50.934;6.934;2023-05-10T14:44:54;2.67;;;2.47;;
5175;SDS011;2607;50.934;6.934;2023-05-10T14:47:20;3.13;;;1.73;;
5175;SDS011;2607;50.934;6.934;2023-05-10T14:49:45;2.00;;;1.80;;
5175;SDS011;2607;50.934;6.934;2023-05-10T14:52:11;2.17;;;2.07;;
5175;SDS011;2607;50.934;6.934;2023-05-10T14:54:37;2.27;;;2.07;;
5175;SDS011;2607;50.934;6.934;2023-05-10T14:57:03;1.97;;;1.97;;
5175;SDS011;2607;50.934;6.934;2023-05-10T14:59:29;2.10;;;2.00;;
5175;SDS011;2607;50.934;6.934;2023-05-10T15:01:54;2.20;;;1.80;;
5175;SDS011;2607;50.934;6.934;2023-05-10T15:04:20;2.33;;;2.23;;
5175;SDS011;2607;50.934;6.934;2023-05-10T15:06:46;1.87;;;1.80;;
5175;SDS011;2607;50.934;6.934;2023-05-10T15:09:11;1.90;;;1.80;;
5175;SDS011;2607;50.934;6.934;2023-05-10T15:11:37;2.30;;;2.07;;
5175;SDS011;2607;50.934;6.934;2023-05-10T15:14:02;2.17;;;2.10;;
5175;SDS011;2607;50.934;6.934;2023-05-10T15:16:28;2.87;;;2.73;;
5175;SDS011;2607;50.934;6.934;2023-05-10T15:18:53;2.00;;;1.90;;
5175;SDS011;2607;50.934;6.934;2023-05-10T15:21:19;4.23;;;3.83;;
5175;SDS011;2607;50.934;6.934;2023-05-10T15:23:45;1.97;;;1.97;;
5175;SDS011;2607;50.934;6.934;2023-05-10T15:26:11;12.57;;;8.77;;
5175;SDS011;2607;50.934;6.934;2023-05-10T15:28:36;2.10;;;2.00;;
5175;SDS011;2607;50.934;6.934;2023-05-10T15:31:02;1.67;;;1.67;;
5175;SDS011;2607;50.934;6.934;2023-05-10T15:33:28;2.00;;;1.90;;
5175;SDS011;2607;50.934;6.934;2023-05-10T15:35:53;2.13;;;1.90;;
5175;SDS011;2607;50.934;6.934;2023-05-10T15:38:20;2.10;;;2.00;;
5175;SDS011;2607;50.934;6.934;2023-05-10T15:40:46;2.70;;;2.50;;
5175;SDS011;2607;50.934;6.934;2023-05-10T15:43:11;2.60;;;2.10;;
5175;SDS011;2607;50.934;6.934;2023-05-10T15:45:37;3.47;;;3.00;;